sensor_id;sensor_type;location;lat;lon;timestamp;P1;durP1;ratioP1;P2;durP2;ratioP2
45316;SDS011;31053;55.870;37.592;2023-03-31T00:01:10;4.32;;;2.20;;
45316;SDS011;31053;55.870;37.592;2023-03-31T00:04:15;6.93;;;2.30;;
45316;SDS011;31053;55.870;37.592;2023-03-31T00:07:19;2.70;;;2.13;;
45316;SDS011;31053;55.870;37.592;2023-03-31T00:10:27;2.63;;;2.00;;
45316;SDS011;31053;55.870;37.592;2023-03-31T00:13:33;4.30;;;2.50;;
45316;SDS011;31053;55.870;37.592;2023-03-31T00:16:38;4.35;;;2.63;;
45316;SDS011;31053;55.870;37.592;2023-03-31T00:23:46;3.10;;;2.00;;
45316;SDS011;31053;55.870;37.592;2023-03-31T00:26:50;2.85;;;1.88;;
45316;SDS011;31053;55.870;37.592;2023-03-31T00:29:54;3.30;;;2.55;;
45316;SDS011;31053;55.870;37.592;2023-03-31T00:32:59;3.10;;;1.85;;
45316;SDS011;31053;55.870;37.592;2023-03-31T00:36:07;3.58;;;2.08;;
45316;SDS011;31053;55.870;37.592;2023-03-31T00:39:13;3.15;;;1.95;;
45316;SDS011;31053;55.870;37.592;2023-03-31T00:42:19;4.95;;;2.00;;
45316;SDS011;31053;55.870;37.592;2023-03-31T00:45:27;2.58;;;1.80;;
45316;SDS011;31053;55.870;37.592;2023-03-31T00:48:33;4.13;;;2.13;;
45316;SDS011;31053;55.870;37.592;2023-03-31T00:54:44;4.20;;;1.88;;
45316;SDS011;31053;55.870;37.592;2023-03-31T00:57:50;3.58;;;2.10;;
45316;SDS011;31053;55.870;37.592;2023-03-31T01:00:59;3.65;;;2.03;;
45316;SDS011;31053;55.870;37.592;2023-03-31T01:04:06;4.15;;;2.25;;
45316;SDS011;31053;55.870;37.592;2023-03-31T01:07:34;2.40;;;1.58;;
45316;SDS011;31053;55.870;37.592;2023-03-31T01:10:42;3.85;;;2.42;;
45316;SDS011;31053;55.870;37.592;2023-03-31T01:13:50;7.60;;;2.70;;
45316;SDS011;31053;55.870;37.592;2023-03-31T01:16:56;3.83;;;2.38;;
45316;SDS011;31053;55.870;37.592;2023-03-31T01:20:08;2.00;;;1.52;;
45316;SDS011;31053;55.870;37.592;2023-03-31T01:23:34;4.28;;;1.95;;
45316;SDS011;31053;55.870;37.592;2023-03-31T01:30:32;1.67;;;1.05;;
45316;SDS011;31053;55.870;37.592;2023-03-31T01:47:56;4.18;;;1.98;;
45316;SDS011;31053;55.870;37.592;2023-03-31T01:51:12;13.82;;;1.67;;
45316;SDS011;31053;55.870;37.592;2023-03-31T01:54:31;2.83;;;1.75;;
45316;SDS011;31053;55.870;37.592;2023-03-31T02:01:01;2.28;;;1.10;;
45316;SDS011;31053;55.870;37.592;2023-03-31T02:04:22;1.98;;;1.30;;
45316;SDS011;31053;55.870;37.592;2023-03-31T02:07:33;2.28;;;1.38;;
45316;SDS011;31053;55.870;37.592;2023-03-31T02:10:41;10.43;;;1.38;;
45316;SDS011;31053;55.870;37.592;2023-03-31T02:13:47;1.90;;;1.40;;
45316;SDS011;31053;55.870;37.592;2023-03-31T02:20:05;2.08;;;1.20;;
45316;SDS011;31053;55.870;37.592;2023-03-31T02:23:14;3.00;;;1.73;;
45316;SDS011;31053;55.870;37.592;2023-03-31T02:26:23;2.33;;;1.40;;
45316;SDS011;31053;55.870;37.592;2023-03-31T02:29:34;9.60;;;1.70;;
45316;SDS011;31053;55.870;37.592;2023-03-31T02:32:40;2.95;;;1.65;;
45316;SDS011;31053;55.870;37.592;2023-03-31T02:35:45;4.85;;;2.40;;
45316;SDS011;31053;55.870;37.592;2023-03-31T02:38:52;3.40;;;2.03;;
45316;SDS011;31053;55.870;37.592;2023-03-31T02:42:00;3.42;;;1.85;;
45316;SDS011;31053;55.870;37.592;2023-03-31T02:48:40;9.40;;;2.30;;
45316;SDS011;31053;55.870;37.592;2023-03-31T02:51:54;2.15;;;1.85;;
45316;SDS011;31053;55.870;37.592;2023-03-31T02:55:27;2.78;;;2.20;;
45316;SDS011;31053;55.870;37.592;2023-03-31T02:58:46;2.55;;;1.75;;
45316;SDS011;31053;55.870;37.592;2023-03-31T03:02:05;3.50;;;2.40;;
45316;SDS011;31053;55.870;37.592;2023-03-31T03:05:48;2.80;;;1.98;;
45316;SDS011;31053;55.870;37.592;2023-03-31T03:09:26;2.22;;;1.55;;
45316;SDS011;31053;55.870;37.592;2023-03-31T03:12:50;6.35;;;2.40;;
45316;SDS011;31053;55.870;37.592;2023-03-31T03:15:59;5.65;;;3.35;;
45316;SDS011;31053;55.870;37.592;2023-03-31T03:19:18;7.95;;;2.30;;
45316;SDS011;31053;55.870;37.592;2023-03-31T03:22:24;2.53;;;2.00;;
45316;SDS011;31053;55.870;37.592;2023-03-31T03:25:28;4.65;;;2.40;;
45316;SDS011;31053;55.870;37.592;2023-03-31T03:28:33;6.47;;;2.88;;
45316;SDS011;31053;55.870;37.592;2023-03-31T03:31:37;3.67;;;2.75;;
45316;SDS011;31053;55.870;37.592;2023-03-31T03:34:42;5.47;;;2.38;;
45316;SDS011;31053;55.870;37.592;2023-03-31T03:37:47;6.55;;;2.20;;
45316;SDS011;31053;55.870;37.592;2023-03-31T03:40:54;2.75;;;2.00;;
45316;SDS011;31053;55.870;37.592;2023-03-31T03:43:59;9.73;;;2.10;;
45316;SDS011;31053;55.870;37.592;2023-03-31T03:47:04;2.15;;;1.92;;
45316;SDS011;31053;55.870;37.592;2023-03-31T03:50:12;7.40;;;2.47;;
45316;SDS011;31053;55.870;37.592;2023-03-31T03:53:17;3.08;;;1.83;;
45316;SDS011;31053;55.870;37.592;2023-03-31T03:56:21;5.97;;;1.90;;
45316;SDS011;31053;55.870;37.592;2023-03-31T03:59:26;5.78;;;2.45;;
45316;SDS011;31053;55.870;37.592;2023-03-31T04:02:30;4.28;;;1.85;;
45316;SDS011;31053;55.870;37.592;2023-03-31T04:05:35;4.57;;;2.58;;
45316;SDS011;31053;55.870;37.592;2023-03-31T04:08:40;2.65;;;1.90;;
45316;SDS011;31053;55.870;37.592;2023-03-31T04:11:45;4.65;;;2.30;;
45316;SDS011;31053;55.870;37.592;2023-03-31T04:14:49;5.47;;;1.90;;
45316;SDS011;31053;55.870;37.592;2023-03-31T04:17:54;4.82;;;1.92;;
45316;SDS011;31053;55.870;37.592;2023-03-31T04:21:00;6.85;;;3.30;;
45316;SDS011;31053;55.870;37.592;2023-03-31T04:24:07;5.40;;;2.35;;
45316;SDS011;31053;55.870;37.592;2023-03-31T04:30:20;12.27;;;2.40;;
45316;SDS011;31053;55.870;37.592;2023-03-31T04:33:33;3.85;;;1.85;;
45316;SDS011;31053;55.870;37.592;2023-03-31T04:36:42;10.63;;;2.65;;
45316;SDS011;31053;55.870;37.592;2023-03-31T04:39:50;5.47;;;2.38;;
45316;SDS011;31053;55.870;37.592;2023-03-31T04:42:57;9.43;;;2.70;;
45316;SDS011;31053;55.870;37.592;2023-03-31T04:46:02;14.23;;;1.98;;
45316;SDS011;31053;55.870;37.592;2023-03-31T04:49:06;4.03;;;2.40;;
45316;SDS011;31053;55.870;37.592;2023-03-31T04:52:11;3.97;;;2.70;;
45316;SDS011;31053;55.870;37.592;2023-03-31T04:55:15;4.53;;;2.85;;
45316;SDS011;31053;55.870;37.592;2023-03-31T04:58:20;4.88;;;2.55;;
45316;SDS011;31053;55.870;37.592;2023-03-31T05:01:25;10.77;;;2.05;;
45316;SDS011;31053;55.870;37.592;2023-03-31T05:04:31;11.27;;;2.30;;
45316;SDS011;31053;55.870;37.592;2023-03-31T05:07:36;3.60;;;2.10;;
45316;SDS011;31053;55.870;37.592;2023-03-31T05:10:41;4.63;;;2.40;;
45316;SDS011;31053;55.870;37.592;2023-03-31T05:13:47;17.48;;;2.78;;
45316;SDS011;31053;55.870;37.592;2023-03-31T05:16:53;14.43;;;3.03;;
45316;SDS011;31053;55.870;37.592;2023-03-31T05:20:00;20.80;;;4.15;;
45316;SDS011;31053;55.870;37.592;2023-03-31T05:23:09;2.38;;;1.58;;
45316;SDS011;31053;55.870;37.592;2023-03-31T05:26:14;3.15;;;2.10;;
45316;SDS011;31053;55.870;37.592;2023-03-31T05:29:19;5.85;;;2.05;;
45316;SDS011;31053;55.870;37.592;2023-03-31T05:32:25;3.75;;;1.77;;
45316;SDS011;31053;55.870;37.592;2023-03-31T05:35:30;3.35;;;1.98;;
45316;SDS011;31053;55.870;37.592;2023-03-31T05:38:35;3.45;;;2.38;;
45316;SDS011;31053;55.870;37.592;2023-03-31T05:41:40;4.53;;;2.10;;
45316;SDS011;31053;55.870;37.592;2023-03-31T05:44:48;12.80;;;2.00;;
45316;SDS011;31053;55.870;37.592;2023-03-31T05:47:52;4.45;;;2.08;;
45316;SDS011;31053;55.870;37.592;2023-03-31T05:50:57;8.32;;;1.90;;
45316;SDS011;31053;55.870;37.592;2023-03-31T05:54:03;7.18;;;1.90;;
45316;SDS011;31053;55.870;37.592;2023-03-31T05:57:09;3.38;;;1.58;;
45316;SDS011;31053;55.870;37.592;2023-03-31T06:00:14;12.48;;;2.88;;
45316;SDS011;31053;55.870;37.592;2023-03-31T06:03:19;7.97;;;2.60;;
45316;SDS011;31053;55.870;37.592;2023-03-31T06:06:25;2.03;;;1.33;;
45316;SDS011;31053;55.870;37.592;2023-03-31T06:09:30;8.10;;;2.75;;
45316;SDS011;31053;55.870;37.592;2023-03-31T06:12:35;8.63;;;2.70;;
45316;SDS011;31053;55.870;37.592;2023-03-31T06:15:40;5.65;;;2.45;;
45316;SDS011;31053;55.870;37.592;2023-03-31T06:18:45;19.80;;;5.10;;
45316;SDS011;31053;55.870;37.592;2023-03-31T06:21:50;4.97;;;1.90;;
45316;SDS011;31053;55.870;37.592;2023-03-31T06:24:55;6.35;;;3.15;;
45316;SDS011;31053;55.870;37.592;2023-03-31T06:27:59;15.65;;;2.17;;
45316;SDS011;31053;55.870;37.592;2023-03-31T06:31:05;5.95;;;2.88;;
45316;SDS011;31053;55.870;37.592;2023-03-31T06:34:11;6.88;;;2.10;;
45316;SDS011;31053;55.870;37.592;2023-03-31T06:37:22;16.88;;;3.08;;
45316;SDS011;31053;55.870;37.592;2023-03-31T06:40:27;5.53;;;2.88;;
45316;SDS011;31053;55.870;37.592;2023-03-31T06:43:32;9.20;;;2.38;;
45316;SDS011;31053;55.870;37.592;2023-03-31T06:46:36;3.00;;;1.92;;
45316;SDS011;31053;55.870;37.592;2023-03-31T06:49:41;2.47;;;1.85;;
45316;SDS011;31053;55.870;37.592;2023-03-31T06:52:46;5.85;;;2.38;;
45316;SDS011;31053;55.870;37.592;2023-03-31T06:55:50;6.68;;;2.50;;
45316;SDS011;31053;55.870;37.592;2023-03-31T06:58:55;7.93;;;2.17;;
45316;SDS011;31053;55.870;37.592;2023-03-31T07:02:00;7.95;;;2.83;;
45316;SDS011;31053;55.870;37.592;2023-03-31T07:05:05;7.30;;;2.70;;
45316;SDS011;31053;55.870;37.592;2023-03-31T07:08:10;7.50;;;2.67;;
45316;SDS011;31053;55.870;37.592;2023-03-31T07:11:14;13.38;;;2.95;;
45316;SDS011;31053;55.870;37.592;2023-03-31T07:14:19;14.38;;;2.75;;
45316;SDS011;31053;55.870;37.592;2023-03-31T07:17:28;29.92;;;4.60;;
45316;SDS011;31053;55.870;37.592;2023-03-31T07:20:32;20.00;;;3.70;;
45316;SDS011;31053;55.870;37.592;2023-03-31T07:23:37;3.72;;;2.50;;
45316;SDS011;31053;55.870;37.592;2023-03-31T07:26:42;6.35;;;3.13;;
45316;SDS011;31053;55.870;37.592;2023-03-31T07:29:54;7.18;;;1.85;;
45316;SDS011;31053;55.870;37.592;2023-03-31T07:33:00;7.70;;;2.33;;
45316;SDS011;31053;55.870;37.592;2023-03-31T07:36:09;10.00;;;2.42;;
45316;SDS011;31053;55.870;37.592;2023-03-31T07:39:14;4.95;;;2.92;;
45316;SDS011;31053;55.870;37.592;2023-03-31T07:42:19;11.68;;;2.63;;
45316;SDS011;31053;55.870;37.592;2023-03-31T07:45:25;4.50;;;2.65;;
45316;SDS011;31053;55.870;37.592;2023-03-31T07:48:30;22.48;;;3.60;;
45316;SDS011;31053;55.870;37.592;2023-03-31T07:51:34;3.80;;;2.20;;
45316;SDS011;31053;55.870;37.592;2023-03-31T07:54:39;17.25;;;2.90;;
45316;SDS011;31053;55.870;37.592;2023-03-31T07:57:44;9.95;;;3.67;;
45316;SDS011;31053;55.870;37.592;2023-03-31T08:00:50;4.88;;;2.72;;
45316;SDS011;31053;55.870;37.592;2023-03-31T08:03:54;3.67;;;2.00;;
45316;SDS011;31053;55.870;37.592;2023-03-31T08:06:58;5.63;;;2.00;;
45316;SDS011;31053;55.870;37.592;2023-03-31T08:10:04;6.05;;;2.92;;
45316;SDS011;31053;55.870;37.592;2023-03-31T08:13:10;6.90;;;3.45;;
45316;SDS011;31053;55.870;37.592;2023-03-31T08:16:15;8.30;;;2.83;;
45316;SDS011;31053;55.870;37.592;2023-03-31T08:19:20;9.75;;;2.78;;
45316;SDS011;31053;55.870;37.592;2023-03-31T08:22:28;2.90;;;2.22;;
45316;SDS011;31053;55.870;37.592;2023-03-31T08:25:33;3.90;;;2.20;;
45316;SDS011;31053;55.870;37.592;2023-03-31T08:32:25;11.38;;;2.05;;
45316;SDS011;31053;55.870;37.592;2023-03-31T08:35:31;4.03;;;1.90;;
45316;SDS011;31053;55.870;37.592;2023-03-31T08:38:39;14.07;;;2.40;;
45316;SDS011;31053;55.870;37.592;2023-03-31T08:45:04;4.22;;;2.40;;
45316;SDS011;31053;55.870;37.592;2023-03-31T08:48:26;5.22;;;2.38;;
45316;SDS011;31053;55.870;37.592;2023-03-31T08:51:38;24.23;;;3.10;;
45316;SDS011;31053;55.870;37.592;2023-03-31T08:54:48;4.50;;;1.95;;
45316;SDS011;31053;55.870;37.592;2023-03-31T08:58:01;4.35;;;1.63;;
45316;SDS011;31053;55.870;37.592;2023-03-31T09:08:10;8.43;;;2.38;;
45316;SDS011;31053;55.870;37.592;2023-03-31T09:11:32;4.25;;;1.73;;
45316;SDS011;31053;55.870;37.592;2023-03-31T09:14:49;6.05;;;2.17;;
45316;SDS011;31053;55.870;37.592;2023-03-31T09:18:32;5.97;;;2.25;;
45316;SDS011;31053;55.870;37.592;2023-03-31T09:21:57;5.75;;;1.60;;
45316;SDS011;31053;55.870;37.592;2023-03-31T09:25:20;5.97;;;1.58;;
45316;SDS011;31053;55.870;37.592;2023-03-31T09:28:37;9.93;;;1.70;;
45316;SDS011;31053;55.870;37.592;2023-03-31T09:31:46;6.72;;;2.05;;
45316;SDS011;31053;55.870;37.592;2023-03-31T09:38:25;6.15;;;1.73;;
45316;SDS011;31053;55.870;37.592;2023-03-31T09:41:34;9.05;;;2.03;;
45316;SDS011;31053;55.870;37.592;2023-03-31T09:44:43;3.78;;;1.88;;
45316;SDS011;31053;55.870;37.592;2023-03-31T09:47:53;9.38;;;1.88;;
45316;SDS011;31053;55.870;37.592;2023-03-31T09:51:05;13.88;;;2.63;;
45316;SDS011;31053;55.870;37.592;2023-03-31T09:54:18;8.73;;;2.28;;
45316;SDS011;31053;55.870;37.592;2023-03-31T09:57:33;14.95;;;4.22;;
45316;SDS011;31053;55.870;37.592;2023-03-31T10:00:40;12.63;;;2.65;;
45316;SDS011;31053;55.870;37.592;2023-03-31T10:06:54;6.13;;;2.15;;
45316;SDS011;31053;55.870;37.592;2023-03-31T10:10:00;10.60;;;2.10;;
45316;SDS011;31053;55.870;37.592;2023-03-31T10:13:09;10.48;;;3.20;;
45316;SDS011;31053;55.870;37.592;2023-03-31T10:16:21;7.40;;;2.30;;
45316;SDS011;31053;55.870;37.592;2023-03-31T10:19:35;10.07;;;1.80;;
45316;SDS011;31053;55.870;37.592;2023-03-31T10:22:44;10.30;;;2.22;;
45316;SDS011;31053;55.870;37.592;2023-03-31T10:25:49;7.97;;;1.42;;
45316;SDS011;31053;55.870;37.592;2023-03-31T10:28:54;5.35;;;1.48;;
45316;SDS011;31053;55.870;37.592;2023-03-31T10:32:21;8.48;;;2.47;;
45316;SDS011;31053;55.870;37.592;2023-03-31T10:35:35;3.30;;;1.58;;
45316;SDS011;31053;55.870;37.592;2023-03-31T10:38:43;9.02;;;1.63;;
45316;SDS011;31053;55.870;37.592;2023-03-31T10:41:50;5.50;;;2.45;;
45316;SDS011;31053;55.870;37.592;2023-03-31T10:48:40;27.70;;;3.22;;
45316;SDS011;31053;55.870;37.592;2023-03-31T10:51:50;10.85;;;2.53;;
45316;SDS011;31053;55.870;37.592;2023-03-31T10:55:01;7.45;;;2.70;;
45316;SDS011;31053;55.870;37.592;2023-03-31T10:58:37;3.38;;;1.90;;
45316;SDS011;31053;55.870;37.592;2023-03-31T11:05:38;12.38;;;2.85;;
45316;SDS011;31053;55.870;37.592;2023-03-31T11:12:41;5.68;;;2.47;;
45316;SDS011;31053;55.870;37.592;2023-03-31T11:15:59;5.10;;;2.60;;
45316;SDS011;31053;55.870;37.592;2023-03-31T11:26:08;5.75;;;3.08;;
45316;SDS011;31053;55.870;37.592;2023-03-31T11:36:15;7.40;;;3.28;;
45316;SDS011;31053;55.870;37.592;2023-03-31T11:48:37;4.90;;;1.77;;
45316;SDS011;31053;55.870;37.592;2023-03-31T11:55:18;6.63;;;2.70;;
45316;SDS011;31053;55.870;37.592;2023-03-31T11:58:27;7.35;;;2.67;;
45316;SDS011;31053;55.870;37.592;2023-03-31T12:07:27;9.43;;;3.67;;
45316;SDS011;31053;55.870;37.592;2023-03-31T12:21:21;7.90;;;3.90;;
45316;SDS011;31053;55.870;37.592;2023-03-31T12:24:31;5.75;;;3.20;;
45316;SDS011;31053;55.870;37.592;2023-03-31T12:27:53;3.30;;;2.42;;
45316;SDS011;31053;55.870;37.592;2023-03-31T12:30:59;4.97;;;2.13;;
45316;SDS011;31053;55.870;37.592;2023-03-31T12:34:12;6.97;;;2.13;;
45316;SDS011;31053;55.870;37.592;2023-03-31T12:37:52;7.95;;;2.85;;
45316;SDS011;31053;55.870;37.592;2023-03-31T12:46:34;4.88;;;3.03;;
45316;SDS011;31053;55.870;37.592;2023-03-31T12:49:51;6.50;;;2.67;;
45316;SDS011;31053;55.870;37.592;2023-03-31T12:53:28;11.50;;;3.78;;
45316;SDS011;31053;55.870;37.592;2023-03-31T13:09:55;16.27;;;4.10;;
45316;SDS011;31053;55.870;37.592;2023-03-31T13:16:37;9.50;;;4.70;;
45316;SDS011;31053;55.870;37.592;2023-03-31T13:19:42;9.93;;;4.68;;
45316;SDS011;31053;55.870;37.592;2023-03-31T13:22:46;6.30;;;3.33;;
45316;SDS011;31053;55.870;37.592;2023-03-31T13:29:45;19.50;;;8.32;;
45316;SDS011;31053;55.870;37.592;2023-03-31T13:43:31;4.05;;;2.05;;
45316;SDS011;31053;55.870;37.592;2023-03-31T13:50:43;7.47;;;3.97;;
45316;SDS011;31053;55.870;37.592;2023-03-31T14:08:52;8.38;;;3.85;;
45316;SDS011;31053;55.870;37.592;2023-03-31T14:12:34;10.52;;;5.65;;
45316;SDS011;31053;55.870;37.592;2023-03-31T14:15:48;9.82;;;4.10;;
45316;SDS011;31053;55.870;37.592;2023-03-31T14:22:45;7.85;;;3.88;;
45316;SDS011;31053;55.870;37.592;2023-03-31T14:35:48;9.82;;;4.18;;
45316;SDS011;31053;55.870;37.592;2023-03-31T14:39:14;7.35;;;2.80;;
45316;SDS011;31053;55.870;37.592;2023-03-31T14:42:40;7.55;;;4.55;;
45316;SDS011;31053;55.870;37.592;2023-03-31T14:46:19;7.90;;;3.95;;
45316;SDS011;31053;55.870;37.592;2023-03-31T14:49:38;5.15;;;2.70;;
45316;SDS011;31053;55.870;37.592;2023-03-31T14:53:16;9.70;;;3.05;;
45316;SDS011;31053;55.870;37.592;2023-03-31T15:00:31;8.38;;;4.10;;
45316;SDS011;31053;55.870;37.592;2023-03-31T15:03:39;14.68;;;6.10;;
45316;SDS011;31053;55.870;37.592;2023-03-31T15:06:59;9.65;;;4.28;;
45316;SDS011;31053;55.870;37.592;2023-03-31T15:10:32;9.02;;;3.70;;
45316;SDS011;31053;55.870;37.592;2023-03-31T15:13:45;6.82;;;3.25;;
45316;SDS011;31053;55.870;37.592;2023-03-31T15:16:58;8.60;;;4.45;;
45316;SDS011;31053;55.870;37.592;2023-03-31T15:23:31;6.45;;;3.22;;
45316;SDS011;31053;55.870;37.592;2023-03-31T15:26:44;5.57;;;2.70;;
45316;SDS011;31053;55.870;37.592;2023-03-31T15:30:21;5.38;;;3.05;;
45316;SDS011;31053;55.870;37.592;2023-03-31T15:34:10;7.38;;;3.03;;
45316;SDS011;31053;55.870;37.592;2023-03-31T15:37:39;5.83;;;3.13;;
45316;SDS011;31053;55.870;37.592;2023-03-31T15:40:51;10.25;;;4.68;;
45316;SDS011;31053;55.870;37.592;2023-03-31T15:47:51;7.85;;;3.10;;
45316;SDS011;31053;55.870;37.592;2023-03-31T15:50:58;6.40;;;3.17;;
45316;SDS011;31053;55.870;37.592;2023-03-31T15:54:25;11.85;;;4.75;;
45316;SDS011;31053;55.870;37.592;2023-03-31T15:57:33;12.50;;;5.20;;
45316;SDS011;31053;55.870;37.592;2023-03-31T16:00:43;8.50;;;4.65;;
45316;SDS011;31053;55.870;37.592;2023-03-31T16:03:57;11.07;;;5.93;;
45316;SDS011;31053;55.870;37.592;2023-03-31T16:07:13;9.65;;;4.70;;
45316;SDS011;31053;55.870;37.592;2023-03-31T16:10:27;12.73;;;6.57;;
45316;SDS011;31053;55.870;37.592;2023-03-31T16:13:36;16.48;;;6.68;;
45316;SDS011;31053;55.870;37.592;2023-03-31T16:16:48;12.40;;;4.90;;
45316;SDS011;31053;55.870;37.592;2023-03-31T16:20:05;7.82;;;4.32;;
45316;SDS011;31053;55.870;37.592;2023-03-31T16:23:19;8.85;;;4.78;;
45316;SDS011;31053;55.870;37.592;2023-03-31T16:26:30;5.88;;;3.60;;
45316;SDS011;31053;55.870;37.592;2023-03-31T16:29:36;7.50;;;3.63;;
45316;SDS011;31053;55.870;37.592;2023-03-31T16:32:59;12.75;;;5.30;;
45316;SDS011;31053;55.870;37.592;2023-03-31T16:36:10;10.02;;;4.78;;
45316;SDS011;31053;55.870;37.592;2023-03-31T16:39:19;10.43;;;4.93;;
45316;SDS011;31053;55.870;37.592;2023-03-31T16:42:25;19.17;;;7.80;;
45316;SDS011;31053;55.870;37.592;2023-03-31T16:45:32;13.05;;;6.40;;
45316;SDS011;31053;55.870;37.592;2023-03-31T16:48:51;16.23;;;8.30;;
45316;SDS011;31053;55.870;37.592;2023-03-31T16:51:58;16.23;;;7.13;;
45316;SDS011;31053;55.870;37.592;2023-03-31T16:55:05;11.43;;;5.25;;
45316;SDS011;31053;55.870;37.592;2023-03-31T16:58:10;12.18;;;7.13;;
45316;SDS011;31053;55.870;37.592;2023-03-31T17:01:15;13.32;;;5.53;;
45316;SDS011;31053;55.870;37.592;2023-03-31T17:04:34;9.73;;;5.72;;
45316;SDS011;31053;55.870;37.592;2023-03-31T17:07:48;15.65;;;6.38;;
45316;SDS011;31053;55.870;37.592;2023-03-31T17:10:55;10.82;;;4.90;;
45316;SDS011;31053;55.870;37.592;2023-03-31T17:14:08;9.52;;;6.10;;
45316;SDS011;31053;55.870;37.592;2023-03-31T17:17:14;11.97;;;6.27;;
45316;SDS011;31053;55.870;37.592;2023-03-31T17:20:19;14.00;;;7.15;;
45316;SDS011;31053;55.870;37.592;2023-03-31T17:23:27;11.77;;;6.15;;
45316;SDS011;31053;55.870;37.592;2023-03-31T17:26:34;9.23;;;5.40;;
45316;SDS011;31053;55.870;37.592;2023-03-31T17:29:42;10.13;;;5.40;;
45316;SDS011;31053;55.870;37.592;2023-03-31T17:32:47;7.55;;;3.70;;
45316;SDS011;31053;55.870;37.592;2023-03-31T17:35:55;8.05;;;3.80;;
45316;SDS011;31053;55.870;37.592;2023-03-31T17:42:11;6.38;;;3.40;;
45316;SDS011;31053;55.870;37.592;2023-03-31T17:45:20;8.65;;;4.60;;
45316;SDS011;31053;55.870;37.592;2023-03-31T17:48:25;5.28;;;3.30;;
45316;SDS011;31053;55.870;37.592;2023-03-31T17:51:30;9.10;;;3.65;;
45316;SDS011;31053;55.870;37.592;2023-03-31T17:54:38;7.55;;;4.15;;
45316;SDS011;31053;55.870;37.592;2023-03-31T17:57:43;6.13;;;4.05;;
45316;SDS011;31053;55.870;37.592;2023-03-31T18:00:49;6.97;;;3.65;;
45316;SDS011;31053;55.870;37.592;2023-03-31T18:03:55;7.80;;;4.15;;
45316;SDS011;31053;55.870;37.592;2023-03-31T18:07:00;8.40;;;4.13;;
45316;SDS011;31053;55.870;37.592;2023-03-31T18:10:06;24.23;;;9.50;;
45316;SDS011;31053;55.870;37.592;2023-03-31T18:13:11;18.25;;;9.25;;
45316;SDS011;31053;55.870;37.592;2023-03-31T18:16:16;8.80;;;5.22;;
45316;SDS011;31053;55.870;37.592;2023-03-31T18:19:21;8.05;;;4.80;;
45316;SDS011;31053;55.870;37.592;2023-03-31T18:22:27;9.50;;;4.63;;
45316;SDS011;31053;55.870;37.592;2023-03-31T18:25:32;9.20;;;5.35;;
45316;SDS011;31053;55.870;37.592;2023-03-31T18:28:36;11.10;;;6.20;;
45316;SDS011;31053;55.870;37.592;2023-03-31T18:31:42;8.80;;;4.93;;
45316;SDS011;31053;55.870;37.592;2023-03-31T18:34:47;6.78;;;4.32;;
45316;SDS011;31053;55.870;37.592;2023-03-31T18:37:51;11.20;;;4.22;;
45316;SDS011;31053;55.870;37.592;2023-03-31T18:40:56;10.38;;;4.35;;
45316;SDS011;31053;55.870;37.592;2023-03-31T18:44:01;14.65;;;6.82;;
45316;SDS011;31053;55.870;37.592;2023-03-31T18:47:06;9.27;;;4.70;;
45316;SDS011;31053;55.870;37.592;2023-03-31T18:50:10;6.65;;;3.95;;
45316;SDS011;31053;55.870;37.592;2023-03-31T18:53:20;11.18;;;5.78;;
45316;SDS011;31053;55.870;37.592;2023-03-31T18:56:25;10.40;;;5.32;;
45316;SDS011;31053;55.870;37.592;2023-03-31T18:59:31;13.40;;;7.30;;
45316;SDS011;31053;55.870;37.592;2023-03-31T19:02:36;10.63;;;5.40;;
45316;SDS011;31053;55.870;37.592;2023-03-31T19:05:40;11.98;;;6.63;;
45316;SDS011;31053;55.870;37.592;2023-03-31T19:08:45;13.20;;;6.32;;
45316;SDS011;31053;55.870;37.592;2023-03-31T19:11:50;16.58;;;6.88;;
45316;SDS011;31053;55.870;37.592;2023-03-31T19:14:58;6.72;;;4.35;;
45316;SDS011;31053;55.870;37.592;2023-03-31T19:18:03;9.35;;;4.75;;
45316;SDS011;31053;55.870;37.592;2023-03-31T19:21:08;9.05;;;4.13;;
45316;SDS011;31053;55.870;37.592;2023-03-31T19:24:13;6.35;;;3.72;;
45316;SDS011;31053;55.870;37.592;2023-03-31T19:27:18;8.95;;;3.10;;
45316;SDS011;31053;55.870;37.592;2023-03-31T19:30:22;6.35;;;3.40;;
45316;SDS011;31053;55.870;37.592;2023-03-31T19:33:29;5.80;;;3.60;;
45316;SDS011;31053;55.870;37.592;2023-03-31T19:36:34;5.68;;;3.63;;
45316;SDS011;31053;55.870;37.592;2023-03-31T19:39:39;6.97;;;3.42;;
45316;SDS011;31053;55.870;37.592;2023-03-31T19:42:44;7.75;;;3.75;;
45316;SDS011;31053;55.870;37.592;2023-03-31T19:45:49;9.70;;;4.25;;
45316;SDS011;31053;55.870;37.592;2023-03-31T19:48:56;5.47;;;2.95;;
45316;SDS011;31053;55.870;37.592;2023-03-31T19:52:03;5.43;;;3.15;;
45316;SDS011;31053;55.870;37.592;2023-03-31T19:55:08;10.68;;;3.53;;
45316;SDS011;31053;55.870;37.592;2023-03-31T19:58:14;6.32;;;3.25;;
45316;SDS011;31053;55.870;37.592;2023-03-31T20:01:21;7.60;;;3.97;;
45316;SDS011;31053;55.870;37.592;2023-03-31T20:04:28;7.25;;;3.75;;
45316;SDS011;31053;55.870;37.592;2023-03-31T20:07:33;8.55;;;4.63;;
45316;SDS011;31053;55.870;37.592;2023-03-31T20:10:38;8.05;;;4.20;;
45316;SDS011;31053;55.870;37.592;2023-03-31T20:13:43;19.58;;;8.70;;
45316;SDS011;31053;55.870;37.592;2023-03-31T20:16:48;13.95;;;6.53;;
45316;SDS011;31053;55.870;37.592;2023-03-31T20:19:56;18.63;;;6.15;;
45316;SDS011;31053;55.870;37.592;2023-03-31T20:23:01;9.30;;;4.80;;
45316;SDS011;31053;55.870;37.592;2023-03-31T20:26:10;18.30;;;7.30;;
45316;SDS011;31053;55.870;37.592;2023-03-31T20:29:16;10.70;;;4.88;;
45316;SDS011;31053;55.870;37.592;2023-03-31T20:32:31;8.48;;;4.88;;
45316;SDS011;31053;55.870;37.592;2023-03-31T20:35:36;7.32;;;4.18;;
45316;SDS011;31053;55.870;37.592;2023-03-31T20:38:44;8.40;;;4.68;;
45316;SDS011;31053;55.870;37.592;2023-03-31T20:54:06;7.68;;;3.80;;
45316;SDS011;31053;55.870;37.592;2023-03-31T20:57:14;7.40;;;4.03;;
45316;SDS011;31053;55.870;37.592;2023-03-31T21:00:25;6.38;;;3.85;;
45316;SDS011;31053;55.870;37.592;2023-03-31T21:03:32;7.07;;;3.83;;
45316;SDS011;31053;55.870;37.592;2023-03-31T21:06:53;6.07;;;3.40;;
45316;SDS011;31053;55.870;37.592;2023-03-31T21:10:17;9.55;;;3.58;;
45316;SDS011;31053;55.870;37.592;2023-03-31T21:13:49;6.10;;;3.38;;
45316;SDS011;31053;55.870;37.592;2023-03-31T21:34:27;12.50;;;3.28;;
45316;SDS011;31053;55.870;37.592;2023-03-31T21:37:33;10.43;;;3.40;;
45316;SDS011;31053;55.870;37.592;2023-03-31T21:40:42;9.55;;;3.90;;
45316;SDS011;31053;55.870;37.592;2023-03-31T21:44:32;9.23;;;4.03;;
45316;SDS011;31053;55.870;37.592;2023-03-31T21:47:41;7.53;;;3.55;;
45316;SDS011;31053;55.870;37.592;2023-03-31T21:50:46;5.85;;;3.33;;
45316;SDS011;31053;55.870;37.592;2023-03-31T21:53:51;5.75;;;3.08;;
45316;SDS011;31053;55.870;37.592;2023-03-31T21:56:58;7.82;;;3.83;;
45316;SDS011;31053;55.870;37.592;2023-03-31T22:00:06;7.45;;;3.72;;
45316;SDS011;31053;55.870;37.592;2023-03-31T22:03:34;12.70;;;3.85;;
45316;SDS011;31053;55.870;37.592;2023-03-31T22:06:39;6.97;;;3.25;;
45316;SDS011;31053;55.870;37.592;2023-03-31T22:09:44;7.03;;;2.50;;
45316;SDS011;31053;55.870;37.592;2023-03-31T22:12:50;9.90;;;4.60;;
45316;SDS011;31053;55.870;37.592;2023-03-31T22:15:55;11.75;;;5.50;;
45316;SDS011;31053;55.870;37.592;2023-03-31T22:19:01;5.78;;;3.85;;
45316;SDS011;31053;55.870;37.592;2023-03-31T22:22:17;7.43;;;3.90;;
45316;SDS011;31053;55.870;37.592;2023-03-31T22:25:22;6.20;;;3.22;;
45316;SDS011;31053;55.870;37.592;2023-03-31T22:28:27;10.40;;;4.38;;